JFA17U LFRB-EGTF
Flight info
| Callsign | JFA17U |
|---|---|
| Flight time | 0h 59m |
| Altitude | 26000 |
| Route | SOMEN DCT ORTAC/N0275F270 DCT VEXEN L980 KATHY |
| Aircraft | PC12/L-SDFGRWY/S |
Departure
| Time | 2026-04-17 13:52 |
|---|---|
| Airport | Brest Bretagne airport (LFRB) |
Arrival
| Time | 2026-04-17 14:52 |
|---|---|
| Airport | Fairoaks Airport (EGTF) |
| Time | Latitude | Longitude | Altitude | Speed | Heading |
|---|---|---|---|---|---|
| 2026-04-17 13:40 | 48.44678 | -4.41306 | 328 ft | 0 kts | 252° |
| 2026-04-17 13:47 | 48.44678 | -4.41305 | 328 ft | 0 kts | 252° |
| 2026-04-17 13:50 | 48.44679 | -4.41309 | 328 ft | 1 kts | 326° |
| 2026-04-17 13:50 | 48.44699 | -4.41265 | 327 ft | 8 kts | 46° |
| 2026-04-17 13:51 | 48.44765 | -4.41288 | 328 ft | 13 kts | 341° |
| 2026-04-17 13:51 | 48.44827 | -4.41320 | 328 ft | 9 kts | 340° |
| 2026-04-17 13:51 | 48.44890 | -4.41351 | 325 ft | 0 kts | 341° |
| 2026-04-17 13:51 | 48.44894 | -4.41368 | 324 ft | 10 kts | 262° |
| 2026-04-17 13:52 | 48.44804 | -4.41773 | 334 ft | 73 kts | 251° |
| 2026-04-17 13:52 | 48.44597 | -4.42678 | 595 ft | 98 kts | 244° |
| 2026-04-17 13:52 | 48.44379 | -4.43661 | 1217 ft | 100 kts | 245° |
| 2026-04-17 13:52 | 48.44152 | -4.44665 | 1898 ft | 103 kts | 247° |
| 2026-04-17 13:53 | 48.43891 | -4.45650 | 2681 ft | 102 kts | 246° |
| 2026-04-17 13:53 | 48.43664 | -4.46654 | 3398 ft | 106 kts | 252° |
| 2026-04-17 13:53 | 48.43412 | -4.47839 | 3870 ft | 129 kts | 252° |
| 2026-04-17 13:53 | 48.43102 | -4.49249 | 4291 ft | 153 kts | 250° |
| 2026-04-17 13:54 | 48.42548 | -4.52053 | 6131 ft | 132 kts | 267° |
| 2026-04-17 13:54 | 48.42827 | -4.53378 | 6910 ft | 141 kts | 297° |
| 2026-04-17 13:55 | 48.44758 | -4.54372 | 8519 ft | 169 kts | 360° |
| 2026-04-17 13:55 | 48.45945 | -4.54159 | 9325 ft | 174 kts | 359° |
| 2026-04-17 13:55 | 48.48406 | -4.53748 | 10912 ft | 182 kts | 358° |
| 2026-04-17 13:56 | 48.50378 | -4.51334 | 12380 ft | 201 kts | 63° |
| 2026-04-17 13:56 | 48.51045 | -4.49457 | 13120 ft | 206 kts | 64° |
| 2026-04-17 13:56 | 48.51740 | -4.47530 | 13871 ft | 211 kts | 63° |
| 2026-04-17 13:57 | 48.52454 | -4.45575 | 14564 ft | 215 kts | 63° |
| 2026-04-17 13:57 | 48.53179 | -4.43595 | 15280 ft | 217 kts | 63° |
| 2026-04-17 13:57 | 48.54647 | -4.39572 | 16749 ft | 221 kts | 63° |
| 2026-04-17 13:58 | 48.55392 | -4.37530 | 17514 ft | 223 kts | 63° |
| 2026-04-17 13:58 | 48.56876 | -4.33454 | 18949 ft | 228 kts | 63° |
| 2026-04-17 13:58 | 48.57648 | -4.31334 | 19602 ft | 233 kts | 63° |
| 2026-04-17 13:59 | 48.59225 | -4.26994 | 20906 ft | 239 kts | 63° |
| 2026-04-17 13:59 | 48.60029 | -4.24776 | 21566 ft | 242 kts | 62° |
| 2026-04-17 13:59 | 48.60845 | -4.22526 | 22201 ft | 246 kts | 62° |
| 2026-04-17 14:00 | 48.61672 | -4.20241 | 22828 ft | 249 kts | 63° |
| 2026-04-17 14:00 | 48.62508 | -4.17930 | 23457 ft | 252 kts | 62° |
| 2026-04-17 14:00 | 48.63354 | -4.15596 | 24064 ft | 253 kts | 62° |
| 2026-04-17 14:00 | 48.64188 | -4.13290 | 24623 ft | 253 kts | 62° |
| 2026-04-17 14:01 | 48.65032 | -4.10949 | 25205 ft | 254 kts | 62° |
| 2026-04-17 14:01 | 48.65891 | -4.08569 | 25592 ft | 266 kts | 62° |
| 2026-04-17 14:01 | 48.66792 | -4.06064 | 25847 ft | 274 kts | 61° |
| 2026-04-17 14:01 | 48.67991 | -4.03890 | 26072 ft | 263 kts | 35° |
| 2026-04-17 14:02 | 48.69436 | -4.02204 | 26181 ft | 269 kts | 34° |
| 2026-04-17 14:02 | 48.70891 | -4.00247 | 26199 ft | 291 kts | 41° |
| 2026-04-17 14:02 | 48.72353 | -3.97964 | 26202 ft | 313 kts | 44° |
| 2026-04-17 14:02 | 48.73917 | -3.95545 | 26202 ft | 329 kts | 42° |
| 2026-04-17 14:03 | 48.75583 | -3.93089 | 26198 ft | 339 kts | 41° |
| 2026-04-17 14:03 | 48.77278 | -3.90596 | 26191 ft | 338 kts | 42° |
| 2026-04-17 14:03 | 48.78935 | -3.88109 | 26192 ft | 333 kts | 43° |
| 2026-04-17 14:03 | 48.80573 | -3.85646 | 26191 ft | 330 kts | 42° |
| 2026-04-17 14:04 | 48.82203 | -3.83210 | 26188 ft | 329 kts | 42° |
| 2026-04-17 14:04 | 48.83836 | -3.80770 | 26187 ft | 330 kts | 42° |
| 2026-04-17 14:04 | 48.85474 | -3.78313 | 26189 ft | 332 kts | 42° |
| 2026-04-17 14:04 | 48.87117 | -3.75845 | 26191 ft | 333 kts | 42° |
| 2026-04-17 14:05 | 48.88764 | -3.73372 | 26193 ft | 333 kts | 42° |
| 2026-04-17 14:05 | 48.90412 | -3.70893 | 26192 ft | 333 kts | 42° |
| 2026-04-17 14:05 | 48.92061 | -3.68411 | 26193 ft | 334 kts | 42° |
| 2026-04-17 14:05 | 48.93710 | -3.65926 | 26191 ft | 334 kts | 42° |
| 2026-04-17 14:06 | 48.95359 | -3.63438 | 26192 ft | 334 kts | 42° |
| 2026-04-17 14:06 | 48.97009 | -3.60947 | 26193 ft | 334 kts | 43° |
| 2026-04-17 14:06 | 48.98661 | -3.58451 | 26192 ft | 335 kts | 43° |
| 2026-04-17 14:06 | 49.00316 | -3.55948 | 26187 ft | 335 kts | 43° |
| 2026-04-17 14:07 | 49.01968 | -3.53446 | 26188 ft | 335 kts | 43° |
| 2026-04-17 14:07 | 49.03613 | -3.50951 | 26178 ft | 334 kts | 43° |
| 2026-04-17 14:07 | 49.05257 | -3.48456 | 26176 ft | 332 kts | 43° |
| 2026-04-17 14:07 | 49.06885 | -3.45985 | 26174 ft | 330 kts | 43° |
| 2026-04-17 14:08 | 49.08512 | -3.43512 | 26175 ft | 330 kts | 43° |
| 2026-04-17 14:08 | 49.10134 | -3.41042 | 26173 ft | 329 kts | 43° |
| 2026-04-17 14:08 | 49.11755 | -3.38574 | 26175 ft | 329 kts | 43° |
| 2026-04-17 14:08 | 49.13375 | -3.36104 | 26174 ft | 329 kts | 43° |
| 2026-04-17 14:09 | 49.14994 | -3.33633 | 26176 ft | 329 kts | 43° |
| 2026-04-17 14:09 | 49.16616 | -3.31155 | 26176 ft | 329 kts | 43° |
| 2026-04-17 14:09 | 49.18212 | -3.28714 | 26176 ft | 329 kts | 43° |
| 2026-04-17 14:09 | 49.19851 | -3.26205 | 26176 ft | 329 kts | 43° |
| 2026-04-17 14:10 | 49.21446 | -3.23761 | 26176 ft | 329 kts | 43° |
| 2026-04-17 14:10 | 49.23059 | -3.21288 | 26176 ft | 329 kts | 43° |
| 2026-04-17 14:10 | 49.24674 | -3.18808 | 26176 ft | 329 kts | 43° |
| 2026-04-17 14:10 | 49.26293 | -3.16320 | 26202 ft | 329 kts | 43° |
| 2026-04-17 14:11 | 49.27918 | -3.13821 | 26193 ft | 333 kts | 43° |
| 2026-04-17 14:11 | 49.29559 | -3.11295 | 26196 ft | 335 kts | 43° |
| 2026-04-17 14:11 | 49.31198 | -3.08766 | 26181 ft | 332 kts | 43° |
| 2026-04-17 14:11 | 49.32819 | -3.06264 | 26180 ft | 330 kts | 43° |
| 2026-04-17 14:12 | 49.34433 | -3.03773 | 26176 ft | 328 kts | 43° |
| 2026-04-17 14:12 | 49.36039 | -3.01290 | 26176 ft | 328 kts | 43° |
| 2026-04-17 14:12 | 49.37642 | -2.98809 | 26177 ft | 327 kts | 43° |
| 2026-04-17 14:13 | 49.40849 | -2.93842 | 26175 ft | 329 kts | 43° |
| 2026-04-17 14:13 | 49.42458 | -2.91343 | 26177 ft | 330 kts | 44° |
| 2026-04-17 14:13 | 49.44079 | -2.88825 | 26179 ft | 331 kts | 44° |
| 2026-04-17 14:13 | 49.45699 | -2.86305 | 26180 ft | 331 kts | 44° |
| 2026-04-17 14:14 | 49.47320 | -2.83782 | 26183 ft | 332 kts | 44° |
| 2026-04-17 14:14 | 49.48942 | -2.81255 | 26184 ft | 332 kts | 44° |
| 2026-04-17 14:14 | 49.50568 | -2.78718 | 26191 ft | 334 kts | 44° |
| 2026-04-17 14:14 | 49.52199 | -2.76173 | 26192 ft | 334 kts | 44° |
| 2026-04-17 14:15 | 49.53830 | -2.73622 | 26189 ft | 334 kts | 44° |
| 2026-04-17 14:15 | 49.55464 | -2.71067 | 26190 ft | 335 kts | 44° |
| 2026-04-17 14:15 | 49.57096 | -2.68510 | 26173 ft | 334 kts | 44° |
| 2026-04-17 14:15 | 49.58716 | -2.65968 | 26179 ft | 329 kts | 44° |
| 2026-04-17 14:16 | 49.60295 | -2.63492 | 26178 ft | 327 kts | 44° |
| 2026-04-17 14:16 | 49.61905 | -2.60963 | 26178 ft | 325 kts | 44° |
| 2026-04-17 14:16 | 49.63471 | -2.58501 | 26176 ft | 327 kts | 44° |
| 2026-04-17 14:16 | 49.65066 | -2.55992 | 26177 ft | 328 kts | 44° |
| 2026-04-17 14:17 | 49.66664 | -2.53473 | 26179 ft | 329 kts | 44° |
| 2026-04-17 14:17 | 49.68265 | -2.50948 | 26180 ft | 329 kts | 44° |
| 2026-04-17 14:17 | 49.69863 | -2.48424 | 26181 ft | 329 kts | 44° |
| 2026-04-17 14:17 | 49.71466 | -2.45892 | 26182 ft | 330 kts | 44° |
| 2026-04-17 14:18 | 49.73071 | -2.43353 | 26190 ft | 331 kts | 44° |
| 2026-04-17 14:18 | 49.74688 | -2.40794 | 26192 ft | 332 kts | 44° |
| 2026-04-17 14:18 | 49.76300 | -2.38237 | 26193 ft | 333 kts | 44° |
| 2026-04-17 14:18 | 49.77921 | -2.35665 | 26194 ft | 333 kts | 44° |
| 2026-04-17 14:19 | 49.79539 | -2.33095 | 26194 ft | 333 kts | 44° |
| 2026-04-17 14:19 | 49.81154 | -2.30528 | 26195 ft | 333 kts | 44° |
| 2026-04-17 14:19 | 49.82227 | -2.28821 | 26195 ft | 334 kts | 44° |
| 2026-04-17 14:19 | 49.83844 | -2.26245 | 26170 ft | 333 kts | 44° |
| 2026-04-17 14:20 | 49.85448 | -2.23688 | 26181 ft | 328 kts | 44° |
| 2026-04-17 14:20 | 49.87031 | -2.21162 | 26176 ft | 325 kts | 44° |
| 2026-04-17 14:20 | 49.88603 | -2.18651 | 26176 ft | 324 kts | 44° |
| 2026-04-17 14:20 | 49.90179 | -2.16132 | 26177 ft | 326 kts | 44° |
| 2026-04-17 14:21 | 49.91760 | -2.13601 | 26179 ft | 327 kts | 45° |
| 2026-04-17 14:21 | 49.93344 | -2.11062 | 26180 ft | 328 kts | 45° |
| 2026-04-17 14:21 | 49.94930 | -2.08518 | 26182 ft | 328 kts | 45° |
| 2026-04-17 14:21 | 49.96522 | -2.05965 | 26191 ft | 330 kts | 45° |
| 2026-04-17 14:22 | 49.98118 | -2.03398 | 26193 ft | 331 kts | 45° |
| 2026-04-17 14:22 | 49.99723 | -2.00827 | 26193 ft | 331 kts | 43° |
| 2026-04-17 14:22 | 50.01474 | -1.98523 | 26191 ft | 330 kts | 36° |
| 2026-04-17 14:22 | 50.03237 | -1.96306 | 26194 ft | 330 kts | 37° |
| 2026-04-17 14:23 | 50.05007 | -1.94035 | 26194 ft | 330 kts | 37° |
| 2026-04-17 14:23 | 50.06785 | -1.91759 | 26195 ft | 330 kts | 37° |
| 2026-04-17 14:23 | 50.08564 | -1.89496 | 26195 ft | 330 kts | 37° |
| 2026-04-17 14:23 | 50.10347 | -1.87224 | 26195 ft | 330 kts | 37° |
| 2026-04-17 14:24 | 50.12124 | -1.84953 | 26194 ft | 330 kts | 37° |
| 2026-04-17 14:24 | 50.13901 | -1.82679 | 26179 ft | 330 kts | 37° |
| 2026-04-17 14:24 | 50.15668 | -1.80415 | 26179 ft | 327 kts | 37° |
| 2026-04-17 14:24 | 50.17422 | -1.78168 | 26176 ft | 325 kts | 37° |
| 2026-04-17 14:25 | 50.19171 | -1.75925 | 26188 ft | 326 kts | 37° |
| 2026-04-17 14:25 | 50.20931 | -1.73667 | 26189 ft | 329 kts | 37° |
| 2026-04-17 14:25 | 50.22698 | -1.71394 | 26191 ft | 330 kts | 37° |
| 2026-04-17 14:25 | 50.24471 | -1.69114 | 26193 ft | 330 kts | 37° |
| 2026-04-17 14:26 | 50.26222 | -1.66859 | 26193 ft | 331 kts | 37° |
| 2026-04-17 14:26 | 50.27997 | -1.64570 | 26194 ft | 331 kts | 37° |
| 2026-04-17 14:26 | 50.29773 | -1.62279 | 26195 ft | 331 kts | 37° |
| 2026-04-17 14:26 | 50.31551 | -1.59982 | 26195 ft | 331 kts | 38° |
| 2026-04-17 14:27 | 50.33322 | -1.57692 | 26189 ft | 331 kts | 38° |
| 2026-04-17 14:27 | 50.35098 | -1.55393 | 26188 ft | 331 kts | 38° |
| 2026-04-17 14:27 | 50.36873 | -1.53094 | 26189 ft | 331 kts | 38° |
| 2026-04-17 14:27 | 50.38647 | -1.50792 | 26190 ft | 331 kts | 38° |
| 2026-04-17 14:28 | 50.40426 | -1.48483 | 26190 ft | 331 kts | 38° |
| 2026-04-17 14:28 | 50.42206 | -1.46170 | 26188 ft | 333 kts | 38° |
| 2026-04-17 14:28 | 50.43991 | -1.43849 | 26189 ft | 334 kts | 38° |
| 2026-04-17 14:28 | 50.45777 | -1.41521 | 26190 ft | 334 kts | 38° |
| 2026-04-17 14:29 | 50.47582 | -1.39169 | 26191 ft | 334 kts | 38° |
| 2026-04-17 14:29 | 50.49351 | -1.36860 | 26172 ft | 331 kts | 38° |
| 2026-04-17 14:29 | 50.51108 | -1.34564 | 26170 ft | 327 kts | 38° |
| 2026-04-17 14:29 | 50.52854 | -1.32282 | 26171 ft | 326 kts | 38° |
| 2026-04-17 14:30 | 50.54574 | -1.30032 | 26174 ft | 325 kts | 38° |
| 2026-04-17 14:30 | 50.56316 | -1.27750 | 26178 ft | 327 kts | 38° |
| 2026-04-17 14:30 | 50.58065 | -1.25461 | 26181 ft | 328 kts | 38° |
| 2026-04-17 14:30 | 50.59903 | -1.23362 | 26088 ft | 327 kts | 24° |
| 2026-04-17 14:31 | 50.62043 | -1.22102 | 25595 ft | 325 kts | 8° |
| 2026-04-17 14:31 | 50.64216 | -1.21452 | 25106 ft | 313 kts | 2° |
| 2026-04-17 14:31 | 50.66377 | -1.20970 | 24606 ft | 314 kts | 1° |
| 2026-04-17 14:31 | 50.68539 | -1.20516 | 24117 ft | 314 kts | 1° |
| 2026-04-17 14:32 | 50.70701 | -1.20068 | 23613 ft | 313 kts | 0° |
| 2026-04-17 14:32 | 50.72862 | -1.19619 | 23045 ft | 313 kts | 0° |
| 2026-04-17 14:32 | 50.75023 | -1.19172 | 22487 ft | 313 kts | 0° |
| 2026-04-17 14:32 | 50.77184 | -1.18728 | 21935 ft | 313 kts | 0° |
| 2026-04-17 14:33 | 50.79351 | -1.18286 | 21402 ft | 314 kts | 1° |
| 2026-04-17 14:33 | 50.81486 | -1.17854 | 20882 ft | 313 kts | 1° |
| 2026-04-17 14:33 | 50.83629 | -1.17121 | 20341 ft | 322 kts | 18° |
| 2026-04-17 14:33 | 50.85426 | -1.14959 | 19771 ft | 331 kts | 51° |
| 2026-04-17 14:34 | 50.86386 | -1.11699 | 19091 ft | 326 kts | 83° |
| 2026-04-17 14:34 | 50.86256 | -1.08229 | 18428 ft | 310 kts | 114° |
| 2026-04-17 14:34 | 50.85350 | -1.05196 | 17631 ft | 305 kts | 127° |
| 2026-04-17 14:34 | 50.84243 | -1.02332 | 16743 ft | 304 kts | 129° |
| 2026-04-17 14:35 | 50.83116 | -0.99568 | 15883 ft | 288 kts | 130° |
| 2026-04-17 14:35 | 50.82050 | -0.96968 | 15022 ft | 277 kts | 130° |
| 2026-04-17 14:35 | 50.81006 | -0.94446 | 14189 ft | 271 kts | 130° |
| 2026-04-17 14:35 | 50.80043 | -0.91914 | 13262 ft | 272 kts | 117° |
| 2026-04-17 14:36 | 50.79903 | -0.88946 | 12564 ft | 275 kts | 78° |
| 2026-04-17 14:36 | 50.80880 | -0.86388 | 12282 ft | 278 kts | 40° |
| 2026-04-17 14:36 | 50.82583 | -0.85054 | 11793 ft | 271 kts | 5° |
| 2026-04-17 14:36 | 50.84363 | -0.85317 | 11289 ft | 251 kts | 338° |
| 2026-04-17 14:37 | 50.86021 | -0.86128 | 10809 ft | 249 kts | 338° |
| 2026-04-17 14:37 | 50.87720 | -0.86711 | 10385 ft | 250 kts | 346° |
| 2026-04-17 14:37 | 50.89441 | -0.86880 | 10028 ft | 254 kts | 357° |
| 2026-04-17 14:37 | 50.91216 | -0.86418 | 9627 ft | 257 kts | 12° |
| 2026-04-17 14:38 | 50.92908 | -0.85514 | 9239 ft | 256 kts | 16° |
| 2026-04-17 14:38 | 50.94592 | -0.84630 | 8846 ft | 253 kts | 13° |
| 2026-04-17 14:38 | 50.96280 | -0.83876 | 8466 ft | 251 kts | 12° |
| 2026-04-17 14:38 | 50.97955 | -0.83143 | 8074 ft | 249 kts | 12° |
| 2026-04-17 14:39 | 50.99603 | -0.82389 | 7810 ft | 245 kts | 13° |
| 2026-04-17 14:39 | 51.01219 | -0.81644 | 7615 ft | 246 kts | 12° |
| 2026-04-17 14:39 | 51.02874 | -0.80888 | 7423 ft | 247 kts | 13° |
| 2026-04-17 14:39 | 51.04520 | -0.80135 | 7221 ft | 245 kts | 13° |
| 2026-04-17 14:40 | 51.06156 | -0.79385 | 7021 ft | 244 kts | 12° |
| 2026-04-17 14:40 | 51.07786 | -0.78638 | 6826 ft | 242 kts | 13° |
| 2026-04-17 14:40 | 51.09408 | -0.77987 | 6605 ft | 240 kts | 7° |
| 2026-04-17 14:40 | 51.11059 | -0.77490 | 6222 ft | 243 kts | 6° |
| 2026-04-17 14:41 | 51.12717 | -0.76981 | 5713 ft | 241 kts | 7° |
| 2026-04-17 14:41 | 51.14350 | -0.76420 | 5198 ft | 239 kts | 12° |
| 2026-04-17 14:41 | 51.15898 | -0.75697 | 4824 ft | 224 kts | 13° |
| 2026-04-17 14:41 | 51.17307 | -0.74887 | 4540 ft | 208 kts | 25° |
| 2026-04-17 14:42 | 51.18418 | -0.73459 | 4259 ft | 206 kts | 47° |
| 2026-04-17 14:42 | 51.19236 | -0.71616 | 3983 ft | 202 kts | 57° |
| 2026-04-17 14:42 | 51.20011 | -0.69764 | 3759 ft | 199 kts | 56° |
| 2026-04-17 14:42 | 51.20788 | -0.67929 | 3630 ft | 202 kts | 56° |
| 2026-04-17 14:43 | 51.21573 | -0.66063 | 3508 ft | 204 kts | 57° |
| 2026-04-17 14:43 | 51.22364 | -0.64180 | 3386 ft | 204 kts | 57° |
| 2026-04-17 14:43 | 51.23143 | -0.62324 | 3257 ft | 196 kts | 57° |
| 2026-04-17 14:43 | 51.23895 | -0.60532 | 3125 ft | 195 kts | 57° |
| 2026-04-17 14:44 | 51.24725 | -0.58818 | 2982 ft | 198 kts | 37° |
| 2026-04-17 14:44 | 51.26001 | -0.58185 | 2831 ft | 190 kts | 360° |
| 2026-04-17 14:44 | 51.27309 | -0.58045 | 2692 ft | 189 kts | 0° |
| 2026-04-17 14:44 | 51.28596 | -0.57856 | 2435 ft | 182 kts | 5° |
| 2026-04-17 14:45 | 51.29815 | -0.57567 | 2173 ft | 168 kts | 6° |
| 2026-04-17 14:45 | 51.30998 | -0.57267 | 1911 ft | 169 kts | 6° |
| 2026-04-17 14:45 | 51.32074 | -0.56984 | 1677 ft | 154 kts | 6° |
| 2026-04-17 14:45 | 51.33034 | -0.56575 | 1518 ft | 135 kts | 17° |
| 2026-04-17 14:46 | 51.33894 | -0.56041 | 1384 ft | 138 kts | 26° |
| 2026-04-17 14:46 | 51.34772 | -0.55432 | 1367 ft | 137 kts | 4° |
| 2026-04-17 14:46 | 51.35617 | -0.55755 | 1385 ft | 121 kts | 317° |
| 2026-04-17 14:46 | 51.36054 | -0.56806 | 1469 ft | 111 kts | 268° |
| 2026-04-17 14:47 | 51.35730 | -0.57766 | 1609 ft | 105 kts | 205° |
| 2026-04-17 14:47 | 51.34974 | -0.57547 | 1722 ft | 117 kts | 160° |
| 2026-04-17 14:47 | 51.34220 | -0.57453 | 1682 ft | 117 kts | 211° |
| 2026-04-17 14:47 | 51.33642 | -0.58366 | 1712 ft | 115 kts | 225° |
| 2026-04-17 14:48 | 51.33229 | -0.59437 | 1831 ft | 115 kts | 240° |
| 2026-04-17 14:48 | 51.33333 | -0.60722 | 1601 ft | 128 kts | 304° |
| 2026-04-17 14:48 | 51.34149 | -0.61439 | 1341 ft | 138 kts | 329° |
| 2026-04-17 14:48 | 51.35119 | -0.61435 | 1280 ft | 148 kts | 21° |
| 2026-04-17 14:49 | 51.35769 | -0.60273 | 1179 ft | 139 kts | 78° |
| 2026-04-17 14:49 | 51.36145 | -0.58884 | 1227 ft | 136 kts | 64° |
| 2026-04-17 14:49 | 51.36610 | -0.57567 | 1234 ft | 136 kts | 64° |
| 2026-04-17 14:49 | 51.37092 | -0.56290 | 1278 ft | 131 kts | 61° |
| 2026-04-17 14:50 | 51.37546 | -0.55007 | 1191 ft | 127 kts | 73° |
| 2026-04-17 14:50 | 51.37437 | -0.53814 | 1009 ft | 99 kts | 142° |
| 2026-04-17 14:50 | 51.36876 | -0.53216 | 858 ft | 99 kts | 158° |
| 2026-04-17 14:50 | 51.36278 | -0.52796 | 675 ft | 90 kts | 188° |
| 2026-04-17 14:51 | 51.35805 | -0.53364 | 532 ft | 86 kts | 227° |
| 2026-04-17 14:51 | 51.35479 | -0.54175 | 387 ft | 87 kts | 234° |
| 2026-04-17 14:51 | 51.35161 | -0.54963 | 179 ft | 78 kts | 237° |
| 2026-04-17 14:51 | 51.34882 | -0.55676 | 72 ft | 65 kts | 237° |
| 2026-04-17 14:52 | 51.34749 | -0.56013 | 79 ft | 19 kts | 238° |
| 2026-04-17 14:52 | 51.34671 | -0.56213 | 87 ft | 17 kts | 238° |
| 2026-04-17 14:52 | 51.34626 | -0.56326 | 85 ft | 9 kts | 237° |
| 2026-04-17 14:52 | 51.34643 | -0.56372 | 86 ft | 9 kts | 5° |
| 2026-04-17 14:53 | 51.34705 | -0.56339 | 85 ft | 9 kts | 19° |
| 2026-04-17 14:53 | 51.34769 | -0.56320 | 83 ft | 13 kts | 19° |
| 2026-04-17 14:53 | 51.34863 | -0.56252 | 80 ft | 14 kts | 24° |
| 2026-04-17 14:53 | 51.34940 | -0.56196 | 85 ft | 11 kts | 24° |
| 2026-04-17 14:54 | 51.34961 | -0.56181 | 88 ft | 10 kts | 23° |
| 2026-04-17 14:54 | 51.35027 | -0.56152 | 92 ft | 12 kts | 349° |
| 2026-04-17 14:54 | 51.35077 | -0.56184 | 95 ft | 7 kts | 336° |
| 2026-04-17 14:54 | 51.35083 | -0.56230 | 93 ft | 1 kts | 271° |
| 2026-04-17 14:55 | 51.35090 | -0.56238 | 93 ft | 1 kts | 9° |
| 2026-04-17 14:55 | 51.35097 | -0.56222 | 94 ft | 3 kts | 63° |